sensor_id;sensor_type;location;lat;lon;timestamp;temperature;humidity
318;DHT22;146;53.448;10.228;2023-04-15T00:00:21;7.90;1.20
318;DHT22;146;53.448;10.228;2023-04-15T00:02:49;7.80;1.40
318;DHT22;146;53.448;10.228;2023-04-15T00:05:15;7.80;1.70
318;DHT22;146;53.448;10.228;2023-04-15T00:07:42;7.80;1.90
318;DHT22;146;53.448;10.228;2023-04-15T00:10:10;7.80;2.30
318;DHT22;146;53.448;10.228;2023-04-15T00:12:37;7.80;2.60
318;DHT22;146;53.448;10.228;2023-04-15T00:15:04;7.80;2.80
318;DHT22;146;53.448;10.228;2023-04-15T00:17:32;7.80;3.00
318;DHT22;146;53.448;10.228;2023-04-15T00:20:00;7.80;3.20
318;DHT22;146;53.448;10.228;2023-04-15T00:22:28;7.80;3.30
318;DHT22;146;53.448;10.228;2023-04-15T00:24:55;7.80;3.40
318;DHT22;146;53.448;10.228;2023-04-15T00:27:22;7.80;3.40
318;DHT22;146;53.448;10.228;2023-04-15T00:29:48;7.70;3.50
318;DHT22;146;53.448;10.228;2023-04-15T00:32:15;7.70;3.80
318;DHT22;146;53.448;10.228;2023-04-15T00:34:42;7.70;4.20
318;DHT22;146;53.448;10.228;2023-04-15T00:37:10;7.70;4.50
318;DHT22;146;53.448;10.228;2023-04-15T00:39:37;7.70;4.60
318;DHT22;146;53.448;10.228;2023-04-15T00:42:04;7.70;4.70
318;DHT22;146;53.448;10.228;2023-04-15T00:44:31;7.70;4.80
318;DHT22;146;53.448;10.228;2023-04-15T00:46:59;7.80;5.00
318;DHT22;146;53.448;10.228;2023-04-15T00:49:26;7.80;5.00
318;DHT22;146;53.448;10.228;2023-04-15T00:51:54;7.90;5.20
318;DHT22;146;53.448;10.228;2023-04-15T00:54:22;7.90;5.00
318;DHT22;146;53.448;10.228;2023-04-15T00:56:50;7.90;5.00
318;DHT22;146;53.448;10.228;2023-04-15T00:59:16;7.90;4.80
318;DHT22;146;53.448;10.228;2023-04-15T01:01:44;7.90;4.90
318;DHT22;146;53.448;10.228;2023-04-15T01:04:12;7.80;4.70
318;DHT22;146;53.448;10.228;2023-04-15T01:06:39;7.80;4.80
318;DHT22;146;53.448;10.228;2023-04-15T01:09:06;7.90;4.80
318;DHT22;146;53.448;10.228;2023-04-15T01:11:34;7.90;4.90
318;DHT22;146;53.448;10.228;2023-04-15T01:14:01;7.80;4.90
318;DHT22;146;53.448;10.228;2023-04-15T01:16:28;7.90;5.00
318;DHT22;146;53.448;10.228;2023-04-15T01:18:55;8.00;4.90
318;DHT22;146;53.448;10.228;2023-04-15T01:21:22;8.10;5.00
318;DHT22;146;53.448;10.228;2023-04-15T01:23:50;8.10;4.70
318;DHT22;146;53.448;10.228;2023-04-15T01:26:21;8.00;4.40
318;DHT22;146;53.448;10.228;2023-04-15T01:28:48;8.10;4.40
318;DHT22;146;53.448;10.228;2023-04-15T01:31:15;8.10;4.10
318;DHT22;146;53.448;10.228;2023-04-15T01:33:42;8.00;4.10
318;DHT22;146;53.448;10.228;2023-04-15T01:36:09;8.10;4.20
318;DHT22;146;53.448;10.228;2023-04-15T01:38:37;8.00;4.00
318;DHT22;146;53.448;10.228;2023-04-15T01:41:04;8.00;3.90
318;DHT22;146;53.448;10.228;2023-04-15T01:43:33;8.00;4.10
318;DHT22;146;53.448;10.228;2023-04-15T01:46:00;8.10;4.40
318;DHT22;146;53.448;10.228;2023-04-15T01:48:27;8.00;4.20
318;DHT22;146;53.448;10.228;2023-04-15T01:50:54;7.90;4.30
318;DHT22;146;53.448;10.228;2023-04-15T01:53:22;8.00;4.40
318;DHT22;146;53.448;10.228;2023-04-15T01:55:50;8.00;4.50
318;DHT22;146;53.448;10.228;2023-04-15T01:58:17;7.90;4.50
318;DHT22;146;53.448;10.228;2023-04-15T02:00:45;8.00;4.60
318;DHT22;146;53.448;10.228;2023-04-15T02:03:12;8.00;4.80
318;DHT22;146;53.448;10.228;2023-04-15T02:05:39;8.10;4.90
318;DHT22;146;53.448;10.228;2023-04-15T02:08:06;8.20;4.90
318;DHT22;146;53.448;10.228;2023-04-15T02:10:32;8.10;4.80
318;DHT22;146;53.448;10.228;2023-04-15T02:12:59;8.20;4.80
318;DHT22;146;53.448;10.228;2023-04-15T02:15:26;8.20;4.70
318;DHT22;146;53.448;10.228;2023-04-15T02:17:54;8.20;4.50
318;DHT22;146;53.448;10.228;2023-04-15T02:20:22;8.20;4.40
318;DHT22;146;53.448;10.228;2023-04-15T02:22:48;8.20;4.20
318;DHT22;146;53.448;10.228;2023-04-15T02:25:15;8.30;4.30
318;DHT22;146;53.448;10.228;2023-04-15T02:27:43;8.30;4.30
318;DHT22;146;53.448;10.228;2023-04-15T02:30:10;8.20;4.20
318;DHT22;146;53.448;10.228;2023-04-15T02:32:37;8.20;4.10
318;DHT22;146;53.448;10.228;2023-04-15T02:35:07;8.30;4.30
318;DHT22;146;53.448;10.228;2023-04-15T02:37:35;8.30;4.40
318;DHT22;146;53.448;10.228;2023-04-15T02:40:07;8.30;4.40
318;DHT22;146;53.448;10.228;2023-04-15T02:42:34;8.30;4.50
318;DHT22;146;53.448;10.228;2023-04-15T02:45:01;8.30;4.50
318;DHT22;146;53.448;10.228;2023-04-15T02:47:28;8.30;4.40
318;DHT22;146;53.448;10.228;2023-04-15T02:49:54;8.30;4.50
318;DHT22;146;53.448;10.228;2023-04-15T02:52:24;8.30;4.50
318;DHT22;146;53.448;10.228;2023-04-15T02:54:51;8.40;4.60
318;DHT22;146;53.448;10.228;2023-04-15T02:57:18;8.40;4.60
318;DHT22;146;53.448;10.228;2023-04-15T02:59:45;8.40;4.60
318;DHT22;146;53.448;10.228;2023-04-15T03:02:12;8.40;4.40
318;DHT22;146;53.448;10.228;2023-04-15T03:04:38;8.50;4.40
318;DHT22;146;53.448;10.228;2023-04-15T03:07:06;8.50;4.20
318;DHT22;146;53.448;10.228;2023-04-15T03:09:34;8.50;4.00
318;DHT22;146;53.448;10.228;2023-04-15T03:12:01;8.50;3.90
318;DHT22;146;53.448;10.228;2023-04-15T03:14:27;8.50;3.80
318;DHT22;146;53.448;10.228;2023-04-15T03:16:54;8.60;3.80
318;DHT22;146;53.448;10.228;2023-04-15T03:19:23;8.60;3.90
318;DHT22;146;53.448;10.228;2023-04-15T03:21:50;8.60;3.80
318;DHT22;146;53.448;10.228;2023-04-15T03:24:17;8.60;3.70
318;DHT22;146;53.448;10.228;2023-04-15T03:26:45;8.60;3.60
318;DHT22;146;53.448;10.228;2023-04-15T03:29:12;8.50;3.50
318;DHT22;146;53.448;10.228;2023-04-15T03:31:41;8.40;3.80
318;DHT22;146;53.448;10.228;2023-04-15T03:34:08;8.40;4.20
318;DHT22;146;53.448;10.228;2023-04-15T03:36:35;8.30;4.50
318;DHT22;146;53.448;10.228;2023-04-15T03:39:02;8.30;4.80
318;DHT22;146;53.448;10.228;2023-04-15T03:41:29;8.30;5.10
318;DHT22;146;53.448;10.228;2023-04-15T03:43:58;8.30;5.40
318;DHT22;146;53.448;10.228;2023-04-15T03:46:25;8.30;5.70
318;DHT22;146;53.448;10.228;2023-04-15T03:48:52;8.30;5.80
318;DHT22;146;53.448;10.228;2023-04-15T03:51:19;8.30;6.00
318;DHT22;146;53.448;10.228;2023-04-15T03:53:45;8.30;6.20
318;DHT22;146;53.448;10.228;2023-04-15T03:56:12;8.30;6.30
318;DHT22;146;53.448;10.228;2023-04-15T03:58:39;8.40;6.50
318;DHT22;146;53.448;10.228;2023-04-15T04:01:08;8.40;6.40
318;DHT22;146;53.448;10.228;2023-04-15T04:03:35;8.40;6.40
318;DHT22;146;53.448;10.228;2023-04-15T04:06:02;8.40;6.40
318;DHT22;146;53.448;10.228;2023-04-15T04:08:29;8.30;6.40
318;DHT22;146;53.448;10.228;2023-04-15T04:10:55;8.30;6.40
318;DHT22;146;53.448;10.228;2023-04-15T04:13:22;8.40;6.60
318;DHT22;146;53.448;10.228;2023-04-15T04:15:49;8.40;6.60
318;DHT22;146;53.448;10.228;2023-04-15T04:18:17;8.30;6.60
318;DHT22;146;53.448;10.228;2023-04-15T04:20:44;8.30;6.50
318;DHT22;146;53.448;10.228;2023-04-15T04:23:11;8.30;6.60
318;DHT22;146;53.448;10.228;2023-04-15T04:25:37;8.30;6.70
318;DHT22;146;53.448;10.228;2023-04-15T04:28:04;8.30;6.90
318;DHT22;146;53.448;10.228;2023-04-15T04:30:31;8.30;6.80
318;DHT22;146;53.448;10.228;2023-04-15T04:32:58;8.30;6.90
318;DHT22;146;53.448;10.228;2023-04-15T04:35:26;8.30;6.90
318;DHT22;146;53.448;10.228;2023-04-15T04:37:53;8.30;7.00
318;DHT22;146;53.448;10.228;2023-04-15T04:40:20;8.30;7.00
318;DHT22;146;53.448;10.228;2023-04-15T04:42:47;8.30;7.10
318;DHT22;146;53.448;10.228;2023-04-15T04:45:14;8.30;7.00
318;DHT22;146;53.448;10.228;2023-04-15T04:47:40;8.30;6.90
318;DHT22;146;53.448;10.228;2023-04-15T04:50:08;8.30;6.90
318;DHT22;146;53.448;10.228;2023-04-15T04:52:36;8.30;6.90
318;DHT22;146;53.448;10.228;2023-04-15T04:55:04;8.30;6.90
318;DHT22;146;53.448;10.228;2023-04-15T04:57:31;8.30;7.00
318;DHT22;146;53.448;10.228;2023-04-15T04:59:57;8.30;7.10
318;DHT22;146;53.448;10.228;2023-04-15T05:02:25;8.30;7.20
318;DHT22;146;53.448;10.228;2023-04-15T05:04:52;8.40;7.30
318;DHT22;146;53.448;10.228;2023-04-15T05:07:19;8.30;7.10
318;DHT22;146;53.448;10.228;2023-04-15T05:09:48;8.30;7.10
318;DHT22;146;53.448;10.228;2023-04-15T05:12:14;8.30;7.20
318;DHT22;146;53.448;10.228;2023-04-15T05:14:42;8.40;7.20
318;DHT22;146;53.448;10.228;2023-04-15T05:17:11;8.40;7.30
318;DHT22;146;53.448;10.228;2023-04-15T05:19:38;8.50;7.40
318;DHT22;146;53.448;10.228;2023-04-15T05:22:05;8.40;7.20
318;DHT22;146;53.448;10.228;2023-04-15T05:24:32;8.40;7.20
318;DHT22;146;53.448;10.228;2023-04-15T05:27:00;8.50;7.20
318;DHT22;146;53.448;10.228;2023-04-15T05:29:27;8.50;7.30
318;DHT22;146;53.448;10.228;2023-04-15T05:31:54;8.40;7.20
318;DHT22;146;53.448;10.228;2023-04-15T05:34:21;8.40;7.20
318;DHT22;146;53.448;10.228;2023-04-15T05:36:47;8.50;7.30
318;DHT22;146;53.448;10.228;2023-04-15T05:48:43;8.40;7.70
318;DHT22;146;53.448;10.228;2023-04-15T05:51:10;8.40;7.70
318;DHT22;146;53.448;10.228;2023-04-15T05:53:40;8.40;7.80
318;DHT22;146;53.448;10.228;2023-04-15T05:56:07;8.40;7.80
318;DHT22;146;53.448;10.228;2023-04-15T05:58:37;8.40;7.90
318;DHT22;146;53.448;10.228;2023-04-15T06:01:21;8.40;7.90
318;DHT22;146;53.448;10.228;2023-04-15T06:04:00;8.40;7.90
318;DHT22;146;53.448;10.228;2023-04-15T06:06:27;8.40;8.00
318;DHT22;146;53.448;10.228;2023-04-15T06:09:12;8.50;8.00
318;DHT22;146;53.448;10.228;2023-04-15T06:11:39;8.50;8.00
318;DHT22;146;53.448;10.228;2023-04-15T06:14:06;8.50;7.90
318;DHT22;146;53.448;10.228;2023-04-15T06:16:33;8.60;8.00
318;DHT22;146;53.448;10.228;2023-04-15T06:19:02;8.60;8.00
318;DHT22;146;53.448;10.228;2023-04-15T06:21:29;8.60;8.00
318;DHT22;146;53.448;10.228;2023-04-15T06:23:57;8.60;7.80
318;DHT22;146;53.448;10.228;2023-04-15T06:26:24;8.50;7.60
318;DHT22;146;53.448;10.228;2023-04-15T06:28:51;8.60;7.80
318;DHT22;146;53.448;10.228;2023-04-15T06:31:17;8.60;7.80
318;DHT22;146;53.448;10.228;2023-04-15T06:33:44;8.70;7.80
318;DHT22;146;53.448;10.228;2023-04-15T06:36:31;8.70;7.70
318;DHT22;146;53.448;10.228;2023-04-15T06:38:58;8.60;7.50
318;DHT22;146;53.448;10.228;2023-04-15T06:41:25;8.70;7.50
318;DHT22;146;53.448;10.228;2023-04-15T06:43:52;8.70;7.40
318;DHT22;146;53.448;10.228;2023-04-15T06:46:19;8.80;7.50
318;DHT22;146;53.448;10.228;2023-04-15T06:48:46;8.80;7.40
318;DHT22;146;53.448;10.228;2023-04-15T06:51:13;8.90;7.30
318;DHT22;146;53.448;10.228;2023-04-15T06:53:42;8.90;7.30
318;DHT22;146;53.448;10.228;2023-04-15T06:56:09;9.00;7.20
318;DHT22;146;53.448;10.228;2023-04-15T06:58:36;9.00;6.90
318;DHT22;146;53.448;10.228;2023-04-15T07:01:02;8.90;6.50
318;DHT22;146;53.448;10.228;2023-04-15T07:03:29;8.90;6.30
318;DHT22;146;53.448;10.228;2023-04-15T07:05:57;8.90;6.30
318;DHT22;146;53.448;10.228;2023-04-15T07:08:24;8.90;6.20
318;DHT22;146;53.448;10.228;2023-04-15T07:10:52;8.90;6.20
318;DHT22;146;53.448;10.228;2023-04-15T07:13:19;8.90;6.10
318;DHT22;146;53.448;10.228;2023-04-15T07:15:46;8.90;6.10
318;DHT22;146;53.448;10.228;2023-04-15T07:18:13;9.00;6.20
318;DHT22;146;53.448;10.228;2023-04-15T07:20:40;9.00;6.20
318;DHT22;146;53.448;10.228;2023-04-15T07:23:07;9.00;6.20
318;DHT22;146;53.448;10.228;2023-04-15T07:25:34;9.00;6.10
318;DHT22;146;53.448;10.228;2023-04-15T07:28:02;9.00;6.10
318;DHT22;146;53.448;10.228;2023-04-15T07:30:29;9.10;6.30
318;DHT22;146;53.448;10.228;2023-04-15T07:32:57;9.10;6.00
318;DHT22;146;53.448;10.228;2023-04-15T07:35:24;9.10;5.80
318;DHT22;146;53.448;10.228;2023-04-15T07:37:51;9.00;5.60
318;DHT22;146;53.448;10.228;2023-04-15T07:40:18;9.10;5.60
318;DHT22;146;53.448;10.228;2023-04-15T07:42:45;9.00;5.40
318;DHT22;146;53.448;10.228;2023-04-15T07:45:15;9.10;5.60
318;DHT22;146;53.448;10.228;2023-04-15T07:47:41;9.10;5.80
318;DHT22;146;53.448;10.228;2023-04-15T07:50:09;9.20;6.00
318;DHT22;146;53.448;10.228;2023-04-15T07:52:36;9.00;5.40
318;DHT22;146;53.448;10.228;2023-04-15T07:55:04;9.00;5.30
318;DHT22;146;53.448;10.228;2023-04-15T07:57:31;9.10;5.70
318;DHT22;146;53.448;10.228;2023-04-15T07:59:59;9.20;5.80
318;DHT22;146;53.448;10.228;2023-04-15T08:02:27;9.20;5.70
318;DHT22;146;53.448;10.228;2023-04-15T08:04:54;9.20;5.40
318;DHT22;146;53.448;10.228;2023-04-15T08:07:22;9.20;5.20
318;DHT22;146;53.448;10.228;2023-04-15T08:09:49;9.20;5.00
318;DHT22;146;53.448;10.228;2023-04-15T08:12:16;9.30;5.10
318;DHT22;146;53.448;10.228;2023-04-15T08:14:43;9.30;4.90
318;DHT22;146;53.448;10.228;2023-04-15T08:17:10;9.30;4.50
318;DHT22;146;53.448;10.228;2023-04-15T08:19:39;9.30;4.50
318;DHT22;146;53.448;10.228;2023-04-15T08:22:06;9.30;4.40
318;DHT22;146;53.448;10.228;2023-04-15T08:24:33;9.30;4.40
318;DHT22;146;53.448;10.228;2023-04-15T08:27:01;9.40;4.50
318;DHT22;146;53.448;10.228;2023-04-15T08:29:29;9.40;4.60
318;DHT22;146;53.448;10.228;2023-04-15T08:31:56;9.40;4.40
318;DHT22;146;53.448;10.228;2023-04-15T08:34:23;9.40;4.10
318;DHT22;146;53.448;10.228;2023-04-15T08:36:51;9.40;3.80
318;DHT22;146;53.448;10.228;2023-04-15T08:39:18;9.40;3.60
318;DHT22;146;53.448;10.228;2023-04-15T08:41:45;9.50;3.90
318;DHT22;146;53.448;10.228;2023-04-15T08:44:13;9.50;3.70
318;DHT22;146;53.448;10.228;2023-04-15T08:46:41;9.50;3.60
318;DHT22;146;53.448;10.228;2023-04-15T08:49:12;9.40;3.00
318;DHT22;146;53.448;10.228;2023-04-15T08:51:39;9.50;3.20
318;DHT22;146;53.448;10.228;2023-04-15T08:54:08;9.50;3.30
318;DHT22;146;53.448;10.228;2023-04-15T08:56:36;9.60;3.40
318;DHT22;146;53.448;10.228;2023-04-15T08:59:05;9.60;3.20
318;DHT22;146;53.448;10.228;2023-04-15T09:01:32;9.70;3.10
318;DHT22;146;53.448;10.228;2023-04-15T09:04:02;9.80;3.60
318;DHT22;146;53.448;10.228;2023-04-15T09:06:31;10.00;3.80
318;DHT22;146;53.448;10.228;2023-04-15T09:08:57;10.10;3.60
318;DHT22;146;53.448;10.228;2023-04-15T09:11:25;10.20;2.80
318;DHT22;146;53.448;10.228;2023-04-15T09:13:52;10.30;1.80
318;DHT22;146;53.448;10.228;2023-04-15T09:16:19;10.40;1.60
318;DHT22;146;53.448;10.228;2023-04-15T09:18:46;10.30;1.00
318;DHT22;146;53.448;10.228;2023-04-15T09:21:14;10.30;1.00
318;DHT22;146;53.448;10.228;2023-04-15T09:23:52;10.30;1.00
318;DHT22;146;53.448;10.228;2023-04-15T09:26:31;10.30;1.00
318;DHT22;146;53.448;10.228;2023-04-15T09:29:03;10.30;1.00
318;DHT22;146;53.448;10.228;2023-04-15T09:31:31;10.40;1.00
318;DHT22;146;53.448;10.228;2023-04-15T09:33:58;10.60;1.00
318;DHT22;146;53.448;10.228;2023-04-15T09:36:25;10.80;1.00
318;DHT22;146;53.448;10.228;2023-04-15T09:38:55;11.10;1.00
318;DHT22;146;53.448;10.228;2023-04-15T09:41:22;11.20;1.00
318;DHT22;146;53.448;10.228;2023-04-15T09:43:51;11.20;1.00
318;DHT22;146;53.448;10.228;2023-04-15T09:46:18;11.10;1.00
318;DHT22;146;53.448;10.228;2023-04-15T09:48:45;11.20;1.00
318;DHT22;146;53.448;10.228;2023-04-15T09:51:12;11.30;1.00
318;DHT22;146;53.448;10.228;2023-04-15T09:53:39;11.40;1.00
318;DHT22;146;53.448;10.228;2023-04-15T09:56:07;11.50;1.00
318;DHT22;146;53.448;10.228;2023-04-15T09:58:35;11.50;1.00
318;DHT22;146;53.448;10.228;2023-04-15T10:01:04;11.60;1.00
318;DHT22;146;53.448;10.228;2023-04-15T10:03:33;11.80;1.00
318;DHT22;146;53.448;10.228;2023-04-15T10:06:01;11.80;1.00
318;DHT22;146;53.448;10.228;2023-04-15T10:08:31;12.00;1.00
318;DHT22;146;53.448;10.228;2023-04-15T10:10:59;11.90;1.00
318;DHT22;146;53.448;10.228;2023-04-15T10:13:29;11.80;1.00
318;DHT22;146;53.448;10.228;2023-04-15T10:16:02;11.70;1.00
318;DHT22;146;53.448;10.228;2023-04-15T10:18:34;11.70;1.00
318;DHT22;146;53.448;10.228;2023-04-15T10:21:01;12.00;1.00
318;DHT22;146;53.448;10.228;2023-04-15T10:23:29;12.10;1.00
318;DHT22;146;53.448;10.228;2023-04-15T10:25:56;12.10;1.00
318;DHT22;146;53.448;10.228;2023-04-15T10:28:25;12.10;1.00
318;DHT22;146;53.448;10.228;2023-04-15T10:30:52;12.20;1.00
318;DHT22;146;53.448;10.228;2023-04-15T10:33:21;12.40;1.00
318;DHT22;146;53.448;10.228;2023-04-15T10:35:51;12.60;1.00
318;DHT22;146;53.448;10.228;2023-04-15T10:38:32;12.80;1.00
318;DHT22;146;53.448;10.228;2023-04-15T10:41:15;13.10;1.00
318;DHT22;146;53.448;10.228;2023-04-15T10:43:49;13.10;1.00
318;DHT22;146;53.448;10.228;2023-04-15T10:46:33;13.20;1.00
318;DHT22;146;53.448;10.228;2023-04-15T10:49:07;13.30;1.00
318;DHT22;146;53.448;10.228;2023-04-15T10:51:37;13.50;1.00
318;DHT22;146;53.448;10.228;2023-04-15T10:54:08;13.50;1.00
318;DHT22;146;53.448;10.228;2023-04-15T10:56:40;13.60;1.00
318;DHT22;146;53.448;10.228;2023-04-15T10:59:08;13.30;1.00
318;DHT22;146;53.448;10.228;2023-04-15T11:01:51;13.10;1.00
318;DHT22;146;53.448;10.228;2023-04-15T11:04:52;13.20;1.00
318;DHT22;146;53.448;10.228;2023-04-15T11:07:38;13.10;1.00
318;DHT22;146;53.448;10.228;2023-04-15T11:13:22;13.00;1.00
318;DHT22;146;53.448;10.228;2023-04-15T11:15:50;13.00;1.00
318;DHT22;146;53.448;10.228;2023-04-15T11:18:22;13.10;1.00
318;DHT22;146;53.448;10.228;2023-04-15T11:20:51;13.20;1.00
318;DHT22;146;53.448;10.228;2023-04-15T11:23:28;13.20;1.00
318;DHT22;146;53.448;10.228;2023-04-15T11:25:55;13.20;1.00
318;DHT22;146;53.448;10.228;2023-04-15T11:28:25;13.40;1.00
318;DHT22;146;53.448;10.228;2023-04-15T11:30:52;13.40;1.00
318;DHT22;146;53.448;10.228;2023-04-15T11:33:20;13.40;1.00
318;DHT22;146;53.448;10.228;2023-04-15T11:35:47;13.60;1.00
318;DHT22;146;53.448;10.228;2023-04-15T11:38:15;13.40;1.00
318;DHT22;146;53.448;10.228;2023-04-15T11:40:43;13.30;1.00
318;DHT22;146;53.448;10.228;2023-04-15T11:43:12;13.20;1.00
318;DHT22;146;53.448;10.228;2023-04-15T11:45:48;13.30;1.00
318;DHT22;146;53.448;10.228;2023-04-15T11:48:16;13.40;1.00
318;DHT22;146;53.448;10.228;2023-04-15T11:50:43;13.20;1.00
318;DHT22;146;53.448;10.228;2023-04-15T11:53:12;13.10;1.00
318;DHT22;146;53.448;10.228;2023-04-15T11:55:46;13.20;1.00
318;DHT22;146;53.448;10.228;2023-04-15T11:58:14;13.20;1.00
318;DHT22;146;53.448;10.228;2023-04-15T12:00:46;13.20;1.00
318;DHT22;146;53.448;10.228;2023-04-15T12:03:18;13.30;1.00
318;DHT22;146;53.448;10.228;2023-04-15T12:06:09;13.40;1.00
318;DHT22;146;53.448;10.228;2023-04-15T12:11:41;13.30;1.00
318;DHT22;146;53.448;10.228;2023-04-15T12:14:20;13.20;1.00
318;DHT22;146;53.448;10.228;2023-04-15T12:16:48;13.30;1.00
318;DHT22;146;53.448;10.228;2023-04-15T12:19:18;13.40;1.00
318;DHT22;146;53.448;10.228;2023-04-15T12:21:48;13.40;1.00
318;DHT22;146;53.448;10.228;2023-04-15T12:24:14;13.60;1.00
318;DHT22;146;53.448;10.228;2023-04-15T12:26:47;13.60;1.00
318;DHT22;146;53.448;10.228;2023-04-15T12:29:15;13.70;1.00
318;DHT22;146;53.448;10.228;2023-04-15T12:31:50;13.70;1.00
318;DHT22;146;53.448;10.228;2023-04-15T12:34:23;13.70;1.00
318;DHT22;146;53.448;10.228;2023-04-15T12:36:51;13.80;1.00
318;DHT22;146;53.448;10.228;2023-04-15T12:39:21;13.80;1.00
318;DHT22;146;53.448;10.228;2023-04-15T12:41:49;13.70;1.00
318;DHT22;146;53.448;10.228;2023-04-15T12:44:17;13.60;1.00
318;DHT22;146;53.448;10.228;2023-04-15T12:46:44;13.60;1.00
318;DHT22;146;53.448;10.228;2023-04-15T12:49:11;13.50;1.00
318;DHT22;146;53.448;10.228;2023-04-15T12:51:39;13.60;1.00
318;DHT22;146;53.448;10.228;2023-04-15T12:54:05;13.50;1.00
318;DHT22;146;53.448;10.228;2023-04-15T12:56:32;13.50;1.00
318;DHT22;146;53.448;10.228;2023-04-15T12:59:00;13.70;1.00
318;DHT22;146;53.448;10.228;2023-04-15T13:01:27;13.70;1.00
318;DHT22;146;53.448;10.228;2023-04-15T13:03:55;13.70;1.00
318;DHT22;146;53.448;10.228;2023-04-15T13:06:21;13.60;1.00
318;DHT22;146;53.448;10.228;2023-04-15T13:08:49;13.70;1.00
318;DHT22;146;53.448;10.228;2023-04-15T13:11:19;13.70;1.00
318;DHT22;146;53.448;10.228;2023-04-15T13:13:45;13.60;1.00
318;DHT22;146;53.448;10.228;2023-04-15T13:16:14;13.60;1.00
318;DHT22;146;53.448;10.228;2023-04-15T13:18:41;13.50;1.00
318;DHT22;146;53.448;10.228;2023-04-15T13:21:07;13.50;1.00
318;DHT22;146;53.448;10.228;2023-04-15T13:23:35;13.60;1.00
318;DHT22;146;53.448;10.228;2023-04-15T13:26:02;13.60;1.00
318;DHT22;146;53.448;10.228;2023-04-15T13:28:29;13.60;1.00
318;DHT22;146;53.448;10.228;2023-04-15T13:30:56;13.60;1.00
318;DHT22;146;53.448;10.228;2023-04-15T13:33:24;13.80;1.00
318;DHT22;146;53.448;10.228;2023-04-15T13:35:51;13.90;1.00
318;DHT22;146;53.448;10.228;2023-04-15T13:38:18;13.90;1.00
318;DHT22;146;53.448;10.228;2023-04-15T13:40:44;13.80;1.00
318;DHT22;146;53.448;10.228;2023-04-15T13:43:11;13.90;1.00
318;DHT22;146;53.448;10.228;2023-04-15T13:45:38;13.90;1.00
318;DHT22;146;53.448;10.228;2023-04-15T13:48:05;13.90;1.00
318;DHT22;146;53.448;10.228;2023-04-15T13:50:34;14.00;1.00
318;DHT22;146;53.448;10.228;2023-04-15T13:53:00;14.00;1.00
318;DHT22;146;53.448;10.228;2023-04-15T13:55:27;14.00;1.00
318;DHT22;146;53.448;10.228;2023-04-15T13:57:55;14.20;1.00
318;DHT22;146;53.448;10.228;2023-04-15T14:00:22;14.20;1.00
318;DHT22;146;53.448;10.228;2023-04-15T14:02:49;14.40;1.00
318;DHT22;146;53.448;10.228;2023-04-15T14:05:16;14.30;1.00
318;DHT22;146;53.448;10.228;2023-04-15T14:07:44;14.20;1.00
318;DHT22;146;53.448;10.228;2023-04-15T14:10:11;14.10;1.00
318;DHT22;146;53.448;10.228;2023-04-15T14:12:38;14.30;1.00
318;DHT22;146;53.448;10.228;2023-04-15T14:15:05;14.50;1.00
318;DHT22;146;53.448;10.228;2023-04-15T14:17:32;14.50;1.00
318;DHT22;146;53.448;10.228;2023-04-15T14:19:59;14.40;1.00
318;DHT22;146;53.448;10.228;2023-04-15T14:22:26;14.30;1.00
318;DHT22;146;53.448;10.228;2023-04-15T14:24:54;14.60;1.00
318;DHT22;146;53.448;10.228;2023-04-15T14:27:21;14.60;1.00
318;DHT22;146;53.448;10.228;2023-04-15T14:29:48;14.70;1.00
318;DHT22;146;53.448;10.228;2023-04-15T14:32:15;14.80;1.00
318;DHT22;146;53.448;10.228;2023-04-15T14:34:42;14.80;1.00
318;DHT22;146;53.448;10.228;2023-04-15T14:37:09;15.00;1.00
318;DHT22;146;53.448;10.228;2023-04-15T14:39:36;15.10;1.00
318;DHT22;146;53.448;10.228;2023-04-15T14:42:04;15.10;1.00
318;DHT22;146;53.448;10.228;2023-04-15T14:44:30;15.10;1.00
318;DHT22;146;53.448;10.228;2023-04-15T14:46:57;15.00;1.00
318;DHT22;146;53.448;10.228;2023-04-15T14:49:24;15.00;1.00
318;DHT22;146;53.448;10.228;2023-04-15T14:51:51;14.90;1.00
318;DHT22;146;53.448;10.228;2023-04-15T14:54:18;15.10;1.00
318;DHT22;146;53.448;10.228;2023-04-15T14:56:45;15.10;1.00
318;DHT22;146;53.448;10.228;2023-04-15T14:59:13;14.70;1.00
318;DHT22;146;53.448;10.228;2023-04-15T15:01:40;14.60;1.00
318;DHT22;146;53.448;10.228;2023-04-15T15:04:07;14.60;1.00
318;DHT22;146;53.448;10.228;2023-04-15T15:06:35;14.70;1.00
318;DHT22;146;53.448;10.228;2023-04-15T15:09:02;14.70;1.00
318;DHT22;146;53.448;10.228;2023-04-15T15:11:29;14.70;1.00
318;DHT22;146;53.448;10.228;2023-04-15T15:13:56;14.60;1.00
318;DHT22;146;53.448;10.228;2023-04-15T15:16:24;14.70;1.00
318;DHT22;146;53.448;10.228;2023-04-15T15:18:51;14.70;1.00
318;DHT22;146;53.448;10.228;2023-04-15T15:21:18;14.40;1.00
318;DHT22;146;53.448;10.228;2023-04-15T15:23:45;14.40;1.00
318;DHT22;146;53.448;10.228;2023-04-15T15:26:12;14.40;1.00
318;DHT22;146;53.448;10.228;2023-04-15T15:28:39;14.30;1.00
318;DHT22;146;53.448;10.228;2023-04-15T15:31:07;14.30;1.00
318;DHT22;146;53.448;10.228;2023-04-15T15:33:35;14.40;1.00
318;DHT22;146;53.448;10.228;2023-04-15T15:36:03;14.30;1.00
318;DHT22;146;53.448;10.228;2023-04-15T15:38:29;14.30;1.00
318;DHT22;146;53.448;10.228;2023-04-15T15:40:56;14.40;1.00
318;DHT22;146;53.448;10.228;2023-04-15T15:43:23;14.30;1.00
318;DHT22;146;53.448;10.228;2023-04-15T15:45:50;14.40;1.00
318;DHT22;146;53.448;10.228;2023-04-15T15:48:20;14.40;1.00
318;DHT22;146;53.448;10.228;2023-04-15T15:50:48;14.40;1.00
318;DHT22;146;53.448;10.228;2023-04-15T15:53:15;14.40;1.00
318;DHT22;146;53.448;10.228;2023-04-15T15:55:45;14.20;1.00
318;DHT22;146;53.448;10.228;2023-04-15T15:58:12;14.00;1.00
318;DHT22;146;53.448;10.228;2023-04-15T16:00:39;14.00;1.00
318;DHT22;146;53.448;10.228;2023-04-15T16:03:05;14.00;1.00
318;DHT22;146;53.448;10.228;2023-04-15T16:05:32;13.80;1.00
318;DHT22;146;53.448;10.228;2023-04-15T16:08:00;13.70;1.00
318;DHT22;146;53.448;10.228;2023-04-15T16:10:27;13.60;1.00
318;DHT22;146;53.448;10.228;2023-04-15T16:12:54;13.60;1.00
318;DHT22;146;53.448;10.228;2023-04-15T16:15:23;13.50;1.00
318;DHT22;146;53.448;10.228;2023-04-15T16:17:50;13.40;1.00
318;DHT22;146;53.448;10.228;2023-04-15T16:20:17;13.40;1.00
318;DHT22;146;53.448;10.228;2023-04-15T16:22:44;13.30;1.00
318;DHT22;146;53.448;10.228;2023-04-15T16:25:15;13.10;1.00
318;DHT22;146;53.448;10.228;2023-04-15T16:27:42;12.90;1.00
318;DHT22;146;53.448;10.228;2023-04-15T16:30:10;12.70;1.00
318;DHT22;146;53.448;10.228;2023-04-15T16:32:37;12.50;1.00
318;DHT22;146;53.448;10.228;2023-04-15T16:35:05;12.40;1.00
318;DHT22;146;53.448;10.228;2023-04-15T16:37:32;12.30;1.00
318;DHT22;146;53.448;10.228;2023-04-15T16:40:00;12.20;1.00
318;DHT22;146;53.448;10.228;2023-04-15T16:42:28;12.20;1.00
318;DHT22;146;53.448;10.228;2023-04-15T16:44:55;12.20;1.00
318;DHT22;146;53.448;10.228;2023-04-15T16:47:22;12.30;1.00
318;DHT22;146;53.448;10.228;2023-04-15T16:49:49;12.30;1.00
318;DHT22;146;53.448;10.228;2023-04-15T16:52:16;12.30;1.00
318;DHT22;146;53.448;10.228;2023-04-15T16:54:43;12.40;1.00
318;DHT22;146;53.448;10.228;2023-04-15T16:57:09;12.40;1.00
318;DHT22;146;53.448;10.228;2023-04-15T16:59:38;12.30;1.00
318;DHT22;146;53.448;10.228;2023-04-15T17:02:05;12.30;1.00
318;DHT22;146;53.448;10.228;2023-04-15T17:04:32;12.20;1.00